sensor_id;sensor_type;location;lat;lon;timestamp;P1;durP1;ratioP1;P2;durP2;ratioP2
78296;SDS011;67555;47.660;19.622;2023-08-20T00:01:42;13.77;;;8.35;;
78296;SDS011;67555;47.660;19.622;2023-08-20T00:04:08;10.00;;;7.50;;
78296;SDS011;67555;47.660;19.622;2023-08-20T00:06:34;9.98;;;7.97;;
78296;SDS011;67555;47.660;19.622;2023-08-20T00:09:00;10.75;;;7.70;;
78296;SDS011;67555;47.660;19.622;2023-08-20T00:11:26;10.90;;;7.57;;
78296;SDS011;67555;47.660;19.622;2023-08-20T00:13:53;13.00;;;7.78;;
78296;SDS011;67555;47.660;19.622;2023-08-20T00:16:19;8.73;;;7.07;;
78296;SDS011;67555;47.660;19.622;2023-08-20T00:18:45;9.52;;;7.45;;
78296;SDS011;67555;47.660;19.622;2023-08-20T00:21:11;9.77;;;7.60;;
78296;SDS011;67555;47.660;19.622;2023-08-20T00:23:39;11.20;;;7.55;;
78296;SDS011;67555;47.660;19.622;2023-08-20T00:26:05;12.38;;;8.10;;
78296;SDS011;67555;47.660;19.622;2023-08-20T00:28:31;9.50;;;7.78;;
78296;SDS011;67555;47.660;19.622;2023-08-20T00:31:01;9.57;;;7.85;;
78296;SDS011;67555;47.660;19.622;2023-08-20T00:33:28;11.57;;;8.50;;
78296;SDS011;67555;47.660;19.622;2023-08-20T00:35:54;10.60;;;7.47;;
78296;SDS011;67555;47.660;19.622;2023-08-20T00:38:19;14.73;;;8.68;;
78296;SDS011;67555;47.660;19.622;2023-08-20T00:40:45;9.90;;;7.75;;
78296;SDS011;67555;47.660;19.622;2023-08-20T00:43:11;10.95;;;8.55;;
78296;SDS011;67555;47.660;19.622;2023-08-20T00:45:37;10.20;;;7.80;;
78296;SDS011;67555;47.660;19.622;2023-08-20T00:48:05;13.02;;;8.07;;
78296;SDS011;67555;47.660;19.622;2023-08-20T00:50:31;11.05;;;8.48;;
78296;SDS011;67555;47.660;19.622;2023-08-20T00:52:57;9.73;;;7.90;;
78296;SDS011;67555;47.660;19.622;2023-08-20T00:55:23;10.90;;;7.90;;
78296;SDS011;67555;47.660;19.622;2023-08-20T00:57:48;10.35;;;8.15;;
78296;SDS011;67555;47.660;19.622;2023-08-20T01:00:14;10.85;;;8.10;;
78296;SDS011;67555;47.660;19.622;2023-08-20T01:02:42;12.80;;;8.52;;
78296;SDS011;67555;47.660;19.622;2023-08-20T01:05:08;11.48;;;8.27;;
78296;SDS011;67555;47.660;19.622;2023-08-20T01:11:07;14.18;;;8.00;;
78296;SDS011;67555;47.660;19.622;2023-08-20T01:13:41;10.40;;;8.05;;
78296;SDS011;67555;47.660;19.622;2023-08-20T01:16:07;11.52;;;8.68;;
78296;SDS011;67555;47.660;19.622;2023-08-20T01:18:32;9.50;;;7.88;;
78296;SDS011;67555;47.660;19.622;2023-08-20T01:20:59;10.82;;;8.18;;
78296;SDS011;67555;47.660;19.622;2023-08-20T01:28:52;10.15;;;7.35;;
78296;SDS011;67555;47.660;19.622;2023-08-20T01:31:18;9.90;;;7.75;;
78296;SDS011;67555;47.660;19.622;2023-08-20T01:33:45;12.63;;;7.30;;
78296;SDS011;67555;47.660;19.622;2023-08-20T01:36:11;11.85;;;8.00;;
78296;SDS011;67555;47.660;19.622;2023-08-20T01:38:37;10.35;;;7.30;;
78296;SDS011;67555;47.660;19.622;2023-08-20T01:41:03;9.80;;;7.70;;
78296;SDS011;67555;47.660;19.622;2023-08-20T01:43:29;11.70;;;7.65;;
78296;SDS011;67555;47.660;19.622;2023-08-20T01:45:56;9.52;;;7.15;;
78296;SDS011;67555;47.660;19.622;2023-08-20T01:48:24;10.05;;;7.47;;
78296;SDS011;67555;47.660;19.622;2023-08-20T01:50:50;10.90;;;8.32;;
78296;SDS011;67555;47.660;19.622;2023-08-20T01:53:16;9.85;;;7.50;;
78296;SDS011;67555;47.660;19.622;2023-08-20T01:55:43;11.02;;;7.25;;
78296;SDS011;67555;47.660;19.622;2023-08-20T01:58:09;9.93;;;7.70;;
78296;SDS011;67555;47.660;19.622;2023-08-20T02:00:35;11.15;;;8.30;;
78296;SDS011;67555;47.660;19.622;2023-08-20T02:03:00;10.38;;;8.52;;
78296;SDS011;67555;47.660;19.622;2023-08-20T02:05:27;9.93;;;7.97;;
78296;SDS011;67555;47.660;19.622;2023-08-20T02:07:53;11.52;;;8.15;;
78296;SDS011;67555;47.660;19.622;2023-08-20T02:10:19;10.10;;;7.50;;
78296;SDS011;67555;47.660;19.622;2023-08-20T02:12:46;10.18;;;8.27;;
78296;SDS011;67555;47.660;19.622;2023-08-20T02:15:11;10.35;;;7.35;;
78296;SDS011;67555;47.660;19.622;2023-08-20T02:17:37;12.23;;;7.72;;
78296;SDS011;67555;47.660;19.622;2023-08-20T02:20:03;11.18;;;7.47;;
78296;SDS011;67555;47.660;19.622;2023-08-20T02:22:30;14.13;;;8.43;;
78296;SDS011;67555;47.660;19.622;2023-08-20T02:24:56;11.93;;;7.50;;
78296;SDS011;67555;47.660;19.622;2023-08-20T02:27:21;9.60;;;7.50;;
78296;SDS011;67555;47.660;19.622;2023-08-20T02:29:47;10.52;;;8.60;;
78296;SDS011;67555;47.660;19.622;2023-08-20T02:32:13;12.23;;;8.60;;
78296;SDS011;67555;47.660;19.622;2023-08-20T02:34:39;13.40;;;8.52;;
78296;SDS011;67555;47.660;19.622;2023-08-20T02:37:05;11.18;;;8.88;;
78296;SDS011;67555;47.660;19.622;2023-08-20T02:39:31;15.48;;;8.93;;
78296;SDS011;67555;47.660;19.622;2023-08-20T02:41:57;11.88;;;8.55;;
78296;SDS011;67555;47.660;19.622;2023-08-20T02:44:23;12.73;;;9.02;;
78296;SDS011;67555;47.660;19.622;2023-08-20T02:46:48;11.43;;;9.05;;
78296;SDS011;67555;47.660;19.622;2023-08-20T02:49:14;11.23;;;8.77;;
78296;SDS011;67555;47.660;19.622;2023-08-20T02:51:42;13.70;;;8.80;;
78296;SDS011;67555;47.660;19.622;2023-08-20T02:54:08;10.77;;;8.40;;
78296;SDS011;67555;47.660;19.622;2023-08-20T02:56:34;12.07;;;7.88;;
78296;SDS011;67555;47.660;19.622;2023-08-20T02:59:00;11.13;;;7.22;;
78296;SDS011;67555;47.660;19.622;2023-08-20T03:01:26;11.40;;;7.25;;
78296;SDS011;67555;47.660;19.622;2023-08-20T03:03:52;15.68;;;7.65;;
78296;SDS011;67555;47.660;19.622;2023-08-20T03:06:17;12.85;;;7.80;;
78296;SDS011;67555;47.660;19.622;2023-08-20T03:08:43;10.32;;;7.82;;
78296;SDS011;67555;47.660;19.622;2023-08-20T03:11:09;11.18;;;7.10;;
78296;SDS011;67555;47.660;19.622;2023-08-20T03:13:35;8.20;;;6.55;;
78296;SDS011;67555;47.660;19.622;2023-08-20T03:16:01;9.43;;;6.85;;
78296;SDS011;67555;47.660;19.622;2023-08-20T03:18:28;10.43;;;6.97;;
78296;SDS011;67555;47.660;19.622;2023-08-20T03:20:55;13.95;;;6.53;;
78296;SDS011;67555;47.660;19.622;2023-08-20T03:23:21;8.98;;;6.55;;
78296;SDS011;67555;47.660;19.622;2023-08-20T03:25:48;8.18;;;6.68;;
78296;SDS011;67555;47.660;19.622;2023-08-20T03:28:13;9.98;;;6.28;;
78296;SDS011;67555;47.660;19.622;2023-08-20T03:30:39;9.13;;;6.47;;
78296;SDS011;67555;47.660;19.622;2023-08-20T03:33:05;9.27;;;7.80;;
78296;SDS011;67555;47.660;19.622;2023-08-20T03:35:31;9.15;;;7.03;;
78296;SDS011;67555;47.660;19.622;2023-08-20T03:37:56;11.25;;;7.72;;
78296;SDS011;67555;47.660;19.622;2023-08-20T03:40:22;12.15;;;6.78;;
78296;SDS011;67555;47.660;19.622;2023-08-20T03:42:48;9.95;;;7.78;;
78296;SDS011;67555;47.660;19.622;2023-08-20T03:45:14;10.82;;;8.57;;
78296;SDS011;67555;47.660;19.622;2023-08-20T03:47:40;10.80;;;8.60;;
78296;SDS011;67555;47.660;19.622;2023-08-20T03:50:10;13.15;;;8.05;;
78296;SDS011;67555;47.660;19.622;2023-08-20T03:52:38;11.68;;;9.35;;
78296;SDS011;67555;47.660;19.622;2023-08-20T03:55:04;11.35;;;8.43;;
78296;SDS011;67555;47.660;19.622;2023-08-20T03:57:31;12.18;;;8.85;;
78296;SDS011;67555;47.660;19.622;2023-08-20T03:59:56;12.25;;;7.68;;
78296;SDS011;67555;47.660;19.622;2023-08-20T04:02:23;15.15;;;7.30;;
78296;SDS011;67555;47.660;19.622;2023-08-20T04:04:49;9.07;;;7.05;;
78296;SDS011;67555;47.660;19.622;2023-08-20T04:07:14;10.00;;;7.53;;
78296;SDS011;67555;47.660;19.622;2023-08-20T04:09:40;8.32;;;7.20;;
78296;SDS011;67555;47.660;19.622;2023-08-20T04:12:07;10.98;;;7.10;;
78296;SDS011;67555;47.660;19.622;2023-08-20T04:14:33;9.52;;;7.40;;
78296;SDS011;67555;47.660;19.622;2023-08-20T04:16:59;9.65;;;7.28;;
78296;SDS011;67555;47.660;19.622;2023-08-20T04:19:25;10.40;;;6.53;;
78296;SDS011;67555;47.660;19.622;2023-08-20T04:21:51;9.13;;;6.38;;
78296;SDS011;67555;47.660;19.622;2023-08-20T04:24:16;8.68;;;6.93;;
78296;SDS011;67555;47.660;19.622;2023-08-20T04:26:42;12.07;;;7.20;;
78296;SDS011;67555;47.660;19.622;2023-08-20T04:29:09;12.18;;;7.13;;
78296;SDS011;67555;47.660;19.622;2023-08-20T04:31:34;9.52;;;6.70;;
78296;SDS011;67555;47.660;19.622;2023-08-20T04:34:00;12.25;;;6.85;;
78296;SDS011;67555;47.660;19.622;2023-08-20T04:36:26;8.43;;;6.35;;
78296;SDS011;67555;47.660;19.622;2023-08-20T04:38:52;11.18;;;9.30;;
78296;SDS011;67555;47.660;19.622;2023-08-20T04:41:17;16.60;;;12.32;;
78296;SDS011;67555;47.660;19.622;2023-08-20T04:43:43;20.98;;;11.45;;
78296;SDS011;67555;47.660;19.622;2023-08-20T04:46:09;16.23;;;10.18;;
78296;SDS011;67555;47.660;19.622;2023-08-20T04:48:34;10.80;;;7.75;;
78296;SDS011;67555;47.660;19.622;2023-08-20T04:51:00;10.45;;;7.00;;
78296;SDS011;67555;47.660;19.622;2023-08-20T04:53:26;10.10;;;7.80;;
78296;SDS011;67555;47.660;19.622;2023-08-20T04:55:52;12.07;;;7.03;;
78296;SDS011;67555;47.660;19.622;2023-08-20T04:58:18;13.95;;;7.07;;
78296;SDS011;67555;47.660;19.622;2023-08-20T05:00:44;9.98;;;7.00;;
78296;SDS011;67555;47.660;19.622;2023-08-20T05:03:10;26.52;;;17.65;;
78296;SDS011;67555;47.660;19.622;2023-08-20T05:05:36;14.55;;;9.93;;
78296;SDS011;67555;47.660;19.622;2023-08-20T05:08:02;11.07;;;7.80;;
78296;SDS011;67555;47.660;19.622;2023-08-20T05:10:28;11.65;;;7.93;;
78296;SDS011;67555;47.660;19.622;2023-08-20T05:12:53;9.82;;;7.63;;
78296;SDS011;67555;47.660;19.622;2023-08-20T05:15:19;10.55;;;7.63;;
78296;SDS011;67555;47.660;19.622;2023-08-20T05:17:45;12.15;;;8.80;;
78296;SDS011;67555;47.660;19.622;2023-08-20T05:20:11;10.70;;;8.35;;
78296;SDS011;67555;47.660;19.622;2023-08-20T05:22:36;13.73;;;8.27;;
78296;SDS011;67555;47.660;19.622;2023-08-20T05:25:02;10.77;;;8.13;;
78296;SDS011;67555;47.660;19.622;2023-08-20T05:27:28;12.20;;;8.90;;
78296;SDS011;67555;47.660;19.622;2023-08-20T05:29:54;10.55;;;7.90;;
78296;SDS011;67555;47.660;19.622;2023-08-20T05:32:19;15.05;;;8.18;;
78296;SDS011;67555;47.660;19.622;2023-08-20T05:34:45;8.75;;;6.95;;
78296;SDS011;67555;47.660;19.622;2023-08-20T05:37:11;10.60;;;8.85;;
78296;SDS011;67555;47.660;19.622;2023-08-20T05:39:40;9.85;;;7.38;;
78296;SDS011;67555;47.660;19.622;2023-08-20T05:42:06;13.40;;;8.45;;
78296;SDS011;67555;47.660;19.622;2023-08-20T05:44:32;10.38;;;8.25;;
78296;SDS011;67555;47.660;19.622;2023-08-20T05:46:58;11.57;;;7.68;;
78296;SDS011;67555;47.660;19.622;2023-08-20T05:49:24;11.80;;;8.68;;
78296;SDS011;67555;47.660;19.622;2023-08-20T05:51:49;12.38;;;8.40;;
78296;SDS011;67555;47.660;19.622;2023-08-20T05:54:15;11.48;;;8.52;;
78296;SDS011;67555;47.660;19.622;2023-08-20T05:56:41;14.13;;;8.98;;
78296;SDS011;67555;47.660;19.622;2023-08-20T05:59:06;12.18;;;8.48;;
78296;SDS011;67555;47.660;19.622;2023-08-20T06:01:32;11.90;;;8.35;;
78296;SDS011;67555;47.660;19.622;2023-08-20T06:03:58;10.43;;;7.35;;
78296;SDS011;67555;47.660;19.622;2023-08-20T06:06:24;11.13;;;7.97;;
78296;SDS011;67555;47.660;19.622;2023-08-20T06:08:51;10.25;;;7.95;;
78296;SDS011;67555;47.660;19.622;2023-08-20T06:11:17;10.27;;;8.30;;
78296;SDS011;67555;47.660;19.622;2023-08-20T06:13:44;10.88;;;8.02;;
78296;SDS011;67555;47.660;19.622;2023-08-20T06:16:13;10.23;;;8.52;;
78296;SDS011;67555;47.660;19.622;2023-08-20T06:18:39;11.27;;;7.65;;
78296;SDS011;67555;47.660;19.622;2023-08-20T06:21:04;8.75;;;7.85;;
78296;SDS011;67555;47.660;19.622;2023-08-20T06:23:30;13.50;;;8.40;;
78296;SDS011;67555;47.660;19.622;2023-08-20T06:25:56;10.05;;;7.90;;
78296;SDS011;67555;47.660;19.622;2023-08-20T06:28:22;9.57;;;8.02;;
78296;SDS011;67555;47.660;19.622;2023-08-20T06:30:47;8.20;;;7.03;;
78296;SDS011;67555;47.660;19.622;2023-08-20T06:33:13;8.23;;;6.53;;
78296;SDS011;67555;47.660;19.622;2023-08-20T06:35:39;8.13;;;6.13;;
78296;SDS011;67555;47.660;19.622;2023-08-20T06:38:06;7.57;;;6.40;;
78296;SDS011;67555;47.660;19.622;2023-08-20T06:40:32;6.70;;;6.00;;
78296;SDS011;67555;47.660;19.622;2023-08-20T06:42:58;7.57;;;5.68;;
78296;SDS011;67555;47.660;19.622;2023-08-20T06:45:24;11.05;;;6.57;;
78296;SDS011;67555;47.660;19.622;2023-08-20T06:47:49;9.55;;;5.85;;
78296;SDS011;67555;47.660;19.622;2023-08-20T06:50:15;7.78;;;5.78;;
78296;SDS011;67555;47.660;19.622;2023-08-20T06:52:41;7.22;;;6.05;;
78296;SDS011;67555;47.660;19.622;2023-08-20T06:55:07;7.30;;;5.80;;
78296;SDS011;67555;47.660;19.622;2023-08-20T06:57:33;8.82;;;5.80;;
78296;SDS011;67555;47.660;19.622;2023-08-20T06:59:59;7.43;;;5.85;;
78296;SDS011;67555;47.660;19.622;2023-08-20T07:02:24;6.22;;;5.50;;
78296;SDS011;67555;47.660;19.622;2023-08-20T07:04:51;7.18;;;6.18;;
78296;SDS011;67555;47.660;19.622;2023-08-20T07:07:16;7.65;;;6.30;;
78296;SDS011;67555;47.660;19.622;2023-08-20T07:09:42;7.40;;;5.60;;
78296;SDS011;67555;47.660;19.622;2023-08-20T07:12:08;8.95;;;5.43;;
78296;SDS011;67555;47.660;19.622;2023-08-20T07:14:34;8.35;;;5.72;;
78296;SDS011;67555;47.660;19.622;2023-08-20T07:17:00;7.30;;;5.80;;
78296;SDS011;67555;47.660;19.622;2023-08-20T07:19:27;12.57;;;5.70;;
78296;SDS011;67555;47.660;19.622;2023-08-20T07:21:53;7.85;;;5.50;;
78296;SDS011;67555;47.660;19.622;2023-08-20T07:24:19;9.48;;;5.60;;
78296;SDS011;67555;47.660;19.622;2023-08-20T07:26:50;6.68;;;5.65;;
78296;SDS011;67555;47.660;19.622;2023-08-20T07:29:17;6.75;;;5.45;;
78296;SDS011;67555;47.660;19.622;2023-08-20T07:31:43;6.50;;;5.28;;
78296;SDS011;67555;47.660;19.622;2023-08-20T07:34:09;6.25;;;5.20;;
78296;SDS011;67555;47.660;19.622;2023-08-20T07:36:34;6.22;;;5.40;;
78296;SDS011;67555;47.660;19.622;2023-08-20T07:39:00;6.43;;;5.82;;
78296;SDS011;67555;47.660;19.622;2023-08-20T07:41:26;8.05;;;5.30;;
78296;SDS011;67555;47.660;19.622;2023-08-20T07:43:52;7.30;;;5.65;;
78296;SDS011;67555;47.660;19.622;2023-08-20T07:46:18;8.40;;;5.90;;
78296;SDS011;67555;47.660;19.622;2023-08-20T07:48:44;6.25;;;5.65;;
78296;SDS011;67555;47.660;19.622;2023-08-20T07:51:10;8.98;;;5.95;;
78296;SDS011;67555;47.660;19.622;2023-08-20T07:53:36;8.63;;;6.05;;
78296;SDS011;67555;47.660;19.622;2023-08-20T07:56:02;7.47;;;6.10;;
78296;SDS011;67555;47.660;19.622;2023-08-20T07:58:28;6.03;;;5.22;;
78296;SDS011;67555;47.660;19.622;2023-08-20T08:54:26;8.30;;;6.18;;
78296;SDS011;67555;47.660;19.622;2023-08-20T08:56:55;7.22;;;6.50;;
78296;SDS011;67555;47.660;19.622;2023-08-20T08:59:21;6.72;;;6.05;;
78296;SDS011;67555;47.660;19.622;2023-08-20T09:01:47;6.47;;;5.43;;
78296;SDS011;67555;47.660;19.622;2023-08-20T09:04:14;9.23;;;6.05;;
78296;SDS011;67555;47.660;19.622;2023-08-20T09:09:11;6.80;;;5.45;;
78296;SDS011;67555;47.660;19.622;2023-08-20T09:11:38;9.15;;;5.93;;
78296;SDS011;67555;47.660;19.622;2023-08-20T09:14:03;6.35;;;5.50;;
78296;SDS011;67555;47.660;19.622;2023-08-20T09:16:33;9.70;;;6.18;;
78296;SDS011;67555;47.660;19.622;2023-08-20T09:18:59;7.00;;;5.53;;
78296;SDS011;67555;47.660;19.622;2023-08-20T09:21:29;5.82;;;4.97;;
78296;SDS011;67555;47.660;19.622;2023-08-20T09:23:55;8.10;;;6.15;;
78296;SDS011;67555;47.660;19.622;2023-08-20T09:26:22;6.10;;;5.50;;
78296;SDS011;67555;47.660;19.622;2023-08-20T09:28:48;6.07;;;5.20;;
78296;SDS011;67555;47.660;19.622;2023-08-20T09:31:14;5.97;;;5.38;;
78296;SDS011;67555;47.660;19.622;2023-08-20T09:33:53;6.60;;;5.90;;
78296;SDS011;67555;47.660;19.622;2023-08-20T09:36:29;8.00;;;5.63;;
78296;SDS011;67555;47.660;19.622;2023-08-20T09:39:00;5.88;;;5.30;;
78296;SDS011;67555;47.660;19.622;2023-08-20T09:41:27;7.32;;;5.55;;
78296;SDS011;67555;47.660;19.622;2023-08-20T09:43:57;6.32;;;5.55;;
78296;SDS011;67555;47.660;19.622;2023-08-20T09:46:24;8.95;;;5.95;;
78296;SDS011;67555;47.660;19.622;2023-08-20T09:48:52;6.82;;;5.28;;
78296;SDS011;67555;47.660;19.622;2023-08-20T09:51:24;6.15;;;5.22;;
78296;SDS011;67555;47.660;19.622;2023-08-20T09:57:14;7.00;;;5.97;;
78296;SDS011;67555;47.660;19.622;2023-08-20T09:59:57;7.95;;;5.90;;
78296;SDS011;67555;47.660;19.622;2023-08-20T10:02:24;11.10;;;5.60;;
78296;SDS011;67555;47.660;19.622;2023-08-20T10:04:51;8.60;;;5.53;;
78296;SDS011;67555;47.660;19.622;2023-08-20T10:07:18;5.90;;;5.30;;
78296;SDS011;67555;47.660;19.622;2023-08-20T10:09:44;6.13;;;4.82;;
78296;SDS011;67555;47.660;19.622;2023-08-20T10:12:14;11.10;;;5.90;;
78296;SDS011;67555;47.660;19.622;2023-08-20T10:14:40;6.20;;;5.03;;
78296;SDS011;67555;47.660;19.622;2023-08-20T10:17:07;9.20;;;5.25;;
78296;SDS011;67555;47.660;19.622;2023-08-20T10:19:35;11.85;;;5.75;;
78296;SDS011;67555;47.660;19.622;2023-08-20T10:22:03;7.40;;;6.18;;
78296;SDS011;67555;47.660;19.622;2023-08-20T10:24:40;7.90;;;5.68;;
78296;SDS011;67555;47.660;19.622;2023-08-20T10:27:09;6.70;;;5.28;;
78296;SDS011;67555;47.660;19.622;2023-08-20T10:29:42;7.55;;;5.57;;
78296;SDS011;67555;47.660;19.622;2023-08-20T10:32:11;6.18;;;5.57;;
78296;SDS011;67555;47.660;19.622;2023-08-20T10:34:38;13.43;;;5.28;;
78296;SDS011;67555;47.660;19.622;2023-08-20T10:37:13;6.95;;;5.30;;
78296;SDS011;67555;47.660;19.622;2023-08-20T10:39:41;5.95;;;5.10;;
78296;SDS011;67555;47.660;19.622;2023-08-20T10:42:28;5.70;;;5.10;;
78296;SDS011;67555;47.660;19.622;2023-08-20T10:45:01;7.15;;;5.20;;
78296;SDS011;67555;47.660;19.622;2023-08-20T10:47:36;7.18;;;5.43;;
78296;SDS011;67555;47.660;19.622;2023-08-20T10:50:09;6.13;;;5.38;;
78296;SDS011;67555;47.660;19.622;2023-08-20T10:52:40;7.07;;;5.30;;
78296;SDS011;67555;47.660;19.622;2023-08-20T10:55:11;5.32;;;4.82;;
78296;SDS011;67555;47.660;19.622;2023-08-20T10:57:39;8.45;;;5.03;;
78296;SDS011;67555;47.660;19.622;2023-08-20T11:00:05;8.73;;;5.28;;
78296;SDS011;67555;47.660;19.622;2023-08-20T11:02:37;7.57;;;4.88;;
78296;SDS011;67555;47.660;19.622;2023-08-20T11:05:19;6.50;;;5.10;;
78296;SDS011;67555;47.660;19.622;2023-08-20T11:07:47;6.68;;;4.95;;
78296;SDS011;67555;47.660;19.622;2023-08-20T11:10:15;5.05;;;4.53;;
78296;SDS011;67555;47.660;19.622;2023-08-20T11:12:45;6.13;;;5.13;;
78296;SDS011;67555;47.660;19.622;2023-08-20T11:15:11;7.75;;;5.05;;
78296;SDS011;67555;47.660;19.622;2023-08-20T11:17:47;5.32;;;4.80;;
78296;SDS011;67555;47.660;19.622;2023-08-20T11:20:15;5.65;;;4.82;;
78296;SDS011;67555;47.660;19.622;2023-08-20T11:22:41;7.05;;;5.07;;
78296;SDS011;67555;47.660;19.622;2023-08-20T11:25:10;5.32;;;4.82;;
78296;SDS011;67555;47.660;19.622;2023-08-20T11:27:57;8.05;;;5.25;;
78296;SDS011;67555;47.660;19.622;2023-08-20T11:30:23;7.47;;;4.93;;
78296;SDS011;67555;47.660;19.622;2023-08-20T11:53:24;5.70;;;4.55;;
78296;SDS011;67555;47.660;19.622;2023-08-20T11:55:53;6.90;;;5.28;;
78296;SDS011;67555;47.660;19.622;2023-08-20T11:58:19;5.63;;;5.13;;
78296;SDS011;67555;47.660;19.622;2023-08-20T12:00:48;7.53;;;5.70;;
78296;SDS011;67555;47.660;19.622;2023-08-20T12:03:17;7.82;;;5.80;;
78296;SDS011;67555;47.660;19.622;2023-08-20T12:05:43;7.10;;;5.18;;
78296;SDS011;67555;47.660;19.622;2023-08-20T12:08:14;7.35;;;6.65;;
78296;SDS011;67555;47.660;19.622;2023-08-20T12:10:42;6.15;;;5.22;;
78296;SDS011;67555;47.660;19.622;2023-08-20T12:13:09;6.10;;;5.50;;
78296;SDS011;67555;47.660;19.622;2023-08-20T12:15:37;6.30;;;4.88;;
78296;SDS011;67555;47.660;19.622;2023-08-20T12:18:03;5.30;;;4.80;;
78296;SDS011;67555;47.660;19.622;2023-08-20T12:20:31;6.82;;;5.35;;
78296;SDS011;67555;47.660;19.622;2023-08-20T12:22:58;7.45;;;5.18;;
78296;SDS011;67555;47.660;19.622;2023-08-20T12:25:26;6.20;;;5.15;;
78296;SDS011;67555;47.660;19.622;2023-08-20T12:27:52;8.18;;;5.18;;
78296;SDS011;67555;47.660;19.622;2023-08-20T12:30:18;4.93;;;4.43;;
78296;SDS011;67555;47.660;19.622;2023-08-20T12:32:44;6.03;;;5.35;;
78296;SDS011;67555;47.660;19.622;2023-08-20T12:35:09;5.28;;;4.50;;
78296;SDS011;67555;47.660;19.622;2023-08-20T12:37:35;8.50;;;5.47;;
78296;SDS011;67555;47.660;19.622;2023-08-20T12:40:01;5.80;;;5.30;;
78296;SDS011;67555;47.660;19.622;2023-08-20T12:44:54;7.07;;;4.80;;
78296;SDS011;67555;47.660;19.622;2023-08-20T12:47:20;9.50;;;7.13;;
78296;SDS011;67555;47.660;19.622;2023-08-20T12:49:46;5.20;;;4.70;;
78296;SDS011;67555;47.660;19.622;2023-08-20T12:52:13;6.68;;;4.97;;
78296;SDS011;67555;47.660;19.622;2023-08-20T12:54:38;8.07;;;5.05;;
78296;SDS011;67555;47.660;19.622;2023-08-20T12:57:04;5.70;;;5.20;;
78296;SDS011;67555;47.660;19.622;2023-08-20T12:59:30;5.47;;;4.88;;
78296;SDS011;67555;47.660;19.622;2023-08-20T13:01:55;5.38;;;4.88;;
78296;SDS011;67555;47.660;19.622;2023-08-20T13:04:23;10.00;;;5.53;;
78296;SDS011;67555;47.660;19.622;2023-08-20T13:06:49;8.43;;;4.85;;
78296;SDS011;67555;47.660;19.622;2023-08-20T13:09:15;7.53;;;5.30;;
78296;SDS011;67555;47.660;19.622;2023-08-20T13:11:42;7.65;;;4.80;;
78296;SDS011;67555;47.660;19.622;2023-08-20T13:14:09;6.40;;;5.30;;
78296;SDS011;67555;47.660;19.622;2023-08-20T13:16:35;7.40;;;5.15;;
78296;SDS011;67555;47.660;19.622;2023-08-20T13:19:02;8.68;;;6.00;;
78296;SDS011;67555;47.660;19.622;2023-08-20T13:21:28;7.25;;;5.25;;
78296;SDS011;67555;47.660;19.622;2023-08-20T13:23:53;5.20;;;4.70;;
78296;SDS011;67555;47.660;19.622;2023-08-20T13:26:19;6.28;;;5.28;;
78296;SDS011;67555;47.660;19.622;2023-08-20T13:28:47;6.70;;;5.63;;
78296;SDS011;67555;47.660;19.622;2023-08-20T13:31:13;5.63;;;5.03;;
78296;SDS011;67555;47.660;19.622;2023-08-20T13:33:39;5.65;;;5.05;;
78296;SDS011;67555;47.660;19.622;2023-08-20T13:36:05;6.18;;;4.90;;
78296;SDS011;67555;47.660;19.622;2023-08-20T13:38:32;7.43;;;5.45;;
78296;SDS011;67555;47.660;19.622;2023-08-20T13:40:59;7.82;;;4.90;;
78296;SDS011;67555;47.660;19.622;2023-08-20T13:43:31;5.50;;;4.28;;
78296;SDS011;67555;47.660;19.622;2023-08-20T16:16:04;7.43;;;5.15;;
